createdAt,value
2022-09-02T00:01:38.113Z,2.92
2022-09-02T00:04:06.624Z,3.10
2022-09-02T00:06:32.498Z,2.50
2022-09-02T00:08:56.875Z,2.65
2022-09-02T00:11:27.466Z,2.55
2022-09-02T00:13:53.172Z,2.75
2022-09-02T00:16:17.510Z,2.60
2022-09-02T00:18:45.756Z,2.80
2022-09-02T00:21:13.626Z,2.88
2022-09-02T00:23:39.143Z,2.42
2022-09-02T00:26:02.870Z,2.80
2022-09-02T00:28:26.676Z,2.70
2022-09-02T00:30:50.346Z,2.50
2022-09-02T00:33:16.105Z,2.60
2022-09-02T00:35:42.659Z,2.40
2022-09-02T00:38:07.086Z,2.33
2022-09-02T00:40:31.426Z,2.55
2022-09-02T00:42:56.259Z,2.60
2022-09-02T00:45:21.585Z,2.10
2022-09-02T00:47:46.139Z,2.25
2022-09-02T00:50:15.244Z,2.25
2022-09-02T00:52:45.155Z,2.30
2022-09-02T00:55:16.744Z,2.10
2022-09-02T00:57:45.199Z,2.17
2022-09-02T01:00:16.650Z,2.25
2022-09-02T01:02:43.187Z,2.38
2022-09-02T01:05:10.880Z,2.42
2022-09-02T01:07:40.043Z,2.20
2022-09-02T01:10:06.572Z,2.13
2022-09-02T01:12:32.455Z,2.10
2022-09-02T01:14:56.467Z,2.10
2022-09-02T01:17:21.149Z,2.28
2022-09-02T01:19:50.267Z,1.90
2022-09-02T01:22:23.594Z,1.98
2022-09-02T01:24:47.323Z,2.13
2022-09-02T01:27:11.259Z,2.08
2022-09-02T01:29:35.003Z,2.30
2022-09-02T01:31:59.923Z,1.92
2022-09-02T01:34:24.730Z,2.40
2022-09-02T01:36:49.211Z,2.10
2022-09-02T01:39:15.416Z,1.90
2022-09-02T01:41:40.048Z,2.10
2022-09-02T01:44:04.997Z,2.13
2022-09-02T01:46:28.848Z,1.98
2022-09-02T01:48:52.882Z,2.10
2022-09-02T01:51:19.459Z,2.17
2022-09-02T01:53:43.431Z,2.10
2022-09-02T01:56:08.672Z,2.20
2022-09-02T01:58:32.329Z,2.00
2022-09-02T02:00:56.139Z,2.17
2022-09-02T02:03:20.516Z,1.95
2022-09-02T02:05:45.017Z,2.20
2022-09-02T02:08:12.312Z,2.20
2022-09-02T02:10:36.051Z,1.90
2022-09-02T02:13:02.243Z,2.10
2022-09-02T02:17:52.282Z,2.13
2022-09-02T02:20:21.708Z,2.22
2022-09-02T02:22:45.959Z,2.25
2022-09-02T02:25:11.134Z,2.17
2022-09-02T02:27:35.315Z,2.15
2022-09-02T02:30:06.715Z,2.10
2022-09-02T02:32:32.650Z,2.25
2022-09-02T02:34:57.746Z,2.22
2022-09-02T02:37:25.549Z,2.00
2022-09-02T02:39:49.940Z,2.30
2022-09-02T02:42:13.851Z,2.17
2022-09-02T02:44:39.785Z,2.58
2022-09-02T02:47:05.095Z,2.45
2022-09-02T02:49:29.523Z,2.30
2022-09-02T02:51:53.892Z,2.40
2022-09-02T02:54:18.583Z,2.17
2022-09-02T02:56:42.994Z,2.58
2022-09-02T02:59:06.916Z,2.33
2022-09-02T03:01:32.737Z,2.60
2022-09-02T03:03:58.038Z,2.30
2022-09-02T03:06:23.876Z,2.40
2022-09-02T03:08:53.539Z,2.28
2022-09-02T03:11:18.155Z,2.10
2022-09-02T03:13:42.093Z,2.50
2022-09-02T03:16:06.994Z,2.60
2022-09-02T03:18:30.870Z,3.08
2022-09-02T03:20:56.749Z,2.50
2022-09-02T03:23:20.777Z,2.25
2022-09-02T03:25:47.757Z,2.17
2022-09-02T03:28:34.106Z,2.17
2022-09-02T03:30:59.872Z,2.13
2022-09-02T03:33:24.326Z,2.15
2022-09-02T03:35:48.556Z,2.10
2022-09-02T03:38:14.690Z,2.60
2022-09-02T03:40:41.979Z,2.53
2022-09-02T03:43:05.768Z,2.33
2022-09-02T03:45:30.884Z,2.67
2022-09-02T03:47:59.330Z,2.30
2022-09-02T03:50:31.360Z,2.30
2022-09-02T03:52:55.951Z,2.22
2022-09-02T03:55:21.415Z,2.50
2022-09-02T03:57:45.371Z,2.67
2022-09-02T04:00:13.512Z,2.60
2022-09-02T04:02:41.974Z,2.88
2022-09-02T04:05:13.711Z,2.60
2022-09-02T04:07:41.175Z,2.88
2022-09-02T04:10:09.039Z,2.78
2022-09-02T04:12:36.082Z,2.65
2022-09-02T04:15:00.002Z,2.72
2022-09-02T04:17:23.656Z,2.60
2022-09-02T04:19:47.416Z,2.30
2022-09-02T04:22:11.136Z,2.42
2022-09-02T04:24:35.381Z,2.70
2022-09-02T04:27:03.842Z,2.58
2022-09-02T04:29:32.007Z,2.75
2022-09-02T04:31:56.864Z,2.63
2022-09-02T04:34:20.977Z,2.45
2022-09-02T04:36:46.588Z,2.58
2022-09-02T04:39:10.572Z,2.60
2022-09-02T04:41:35.751Z,2.75
2022-09-02T04:44:02.827Z,2.60
2022-09-02T04:46:34.716Z,3.10
2022-09-02T04:49:01.259Z,2.83
2022-09-02T04:51:27.715Z,2.60
2022-09-02T04:53:56.031Z,2.90
2022-09-02T04:56:23.927Z,2.78
2022-09-02T04:58:50.327Z,2.28
2022-09-02T05:01:21.131Z,2.88
2022-09-02T05:03:47.913Z,2.63
2022-09-02T05:06:14.634Z,2.60
2022-09-02T05:08:38.840Z,2.70
2022-09-02T05:11:07.238Z,2.45
2022-09-02T05:13:31.616Z,2.92
2022-09-02T05:15:56.118Z,3.13
2022-09-02T05:18:20.524Z,2.72
2022-09-02T05:20:46.024Z,2.60
2022-09-02T05:23:11.399Z,2.85
2022-09-02T05:25:38.745Z,2.75
2022-09-02T05:28:02.612Z,2.45
2022-09-02T05:30:26.551Z,2.78
2022-09-02T05:32:50.354Z,2.40
2022-09-02T05:35:15.063Z,2.20
2022-09-02T05:37:41.672Z,2.70
2022-09-02T05:40:08.608Z,2.25
2022-09-02T05:42:35.610Z,2.17
2022-09-02T05:44:59.602Z,2.70
2022-09-02T05:47:25.115Z,2.50
2022-09-02T05:49:49.486Z,2.40
2022-09-02T05:52:15.066Z,2.50
2022-09-02T05:54:46.656Z,2.25
2022-09-02T05:57:19.745Z,2.45
2022-09-02T06:00:01.655Z,2.38
2022-09-02T06:02:37.378Z,2.35
2022-09-02T06:05:01.356Z,2.85
2022-09-02T06:07:26.807Z,3.05
2022-09-02T06:09:55.336Z,2.70
2022-09-02T06:12:21.891Z,2.00
2022-09-02T06:14:47.616Z,2.20
2022-09-02T06:17:12.112Z,1.88
2022-09-02T06:19:42.963Z,1.90
2022-09-02T06:22:07.828Z,2.10
2022-09-02T06:24:34.866Z,2.15
2022-09-02T06:27:07.296Z,1.85
2022-09-02T06:29:34.945Z,1.95
2022-09-02T06:31:58.888Z,2.10
2022-09-02T06:34:27.266Z,1.85
2022-09-02T06:36:52.899Z,1.98
2022-09-02T06:39:20.695Z,1.77
2022-09-02T06:41:48.102Z,2.30
2022-09-02T06:44:16.132Z,2.35
2022-09-02T06:46:44.429Z,2.70
2022-09-02T06:49:11.690Z,2.58
2022-09-02T06:51:39.997Z,2.35
2022-09-02T06:54:06.313Z,2.08
2022-09-02T06:56:32.929Z,1.95
2022-09-02T06:58:57.770Z,1.90
2022-09-02T07:01:36.977Z,2.20
2022-09-02T07:04:18.811Z,2.28
2022-09-02T07:06:46.195Z,2.20
2022-09-02T07:09:13.112Z,1.85
2022-09-02T07:11:38.123Z,2.10
2022-09-02T07:14:02.371Z,2.08
2022-09-02T07:16:27.390Z,2.13
2022-09-02T07:18:54.612Z,2.38
2022-09-02T07:21:19.115Z,2.92
2022-09-02T07:23:43.730Z,2.83
2022-09-02T07:26:13.836Z,2.55
2022-09-02T07:28:39.808Z,2.40
2022-09-02T07:31:04.161Z,2.33
2022-09-02T07:33:27.907Z,2.70
2022-09-02T07:35:53.399Z,2.30
2022-09-02T07:38:19.223Z,2.78
2022-09-02T07:40:44.342Z,2.00
2022-09-02T07:43:11.063Z,2.10
2022-09-02T07:45:37.736Z,2.03
2022-09-02T07:48:02.395Z,2.40
2022-09-02T07:50:27.899Z,2.55
2022-09-02T07:52:55.247Z,2.40
2022-09-02T07:55:18.961Z,2.30
2022-09-02T07:57:42.869Z,2.45
2022-09-02T08:00:08.763Z,1.98
2022-09-02T08:02:37.713Z,1.95
2022-09-02T08:05:02.580Z,2.03
2022-09-02T08:07:26.272Z,2.05
2022-09-02T08:09:51.665Z,1.60
2022-09-02T08:12:17.781Z,1.98
2022-09-02T08:14:44.195Z,1.90
2022-09-02T08:17:08.514Z,2.08
2022-09-02T08:19:32.187Z,1.92
2022-09-02T08:21:56.667Z,1.80
2022-09-02T08:24:20.479Z,1.80
2022-09-02T08:26:45.979Z,1.60
2022-09-02T08:29:10.661Z,1.67
2022-09-02T08:31:35.316Z,1.55
2022-09-02T08:33:58.983Z,1.80
2022-09-02T08:36:22.594Z,1.88
2022-09-02T08:38:46.256Z,1.83
2022-09-02T08:41:23.239Z,1.50
2022-09-02T08:43:50.242Z,1.60
2022-09-02T08:46:18.135Z,1.50
2022-09-02T08:48:47.688Z,1.40
2022-09-02T08:51:18.264Z,1.30
2022-09-02T08:53:52.676Z,1.20
2022-09-02T08:56:19.112Z,1.40
2022-09-02T08:58:47.105Z,1.27
2022-09-02T09:01:24.654Z,1.30
2022-09-02T09:04:09.997Z,1.17
2022-09-02T09:06:45.874Z,1.10
2022-09-02T09:09:19.361Z,1.00
2022-09-02T09:11:54.513Z,0.95
2022-09-02T09:14:28.535Z,0.90
2022-09-02T09:16:59.826Z,1.10
2022-09-02T09:19:33.851Z,0.90
2022-09-02T09:22:03.283Z,1.05
2022-09-02T09:24:33.531Z,1.20
2022-09-02T09:26:57.403Z,1.23
2022-09-02T09:29:21.035Z,1.00
2022-09-02T09:31:48.178Z,1.00
2022-09-02T09:34:14.578Z,1.10
2022-09-02T09:36:53.887Z,0.90
2022-09-02T09:39:27.512Z,0.90
2022-09-02T09:41:52.324Z,0.80
2022-09-02T09:44:38.586Z,1.00
2022-09-02T09:47:04.307Z,1.10
2022-09-02T09:49:29.427Z,0.80
2022-09-02T09:51:56.676Z,0.85
2022-09-02T09:54:20.404Z,0.90
2022-09-02T09:56:44.097Z,0.90
2022-09-02T09:59:11.008Z,0.90
2022-09-02T10:01:35.518Z,1.00
2022-09-02T10:04:02.055Z,1.02
2022-09-02T10:06:39.815Z,1.20
2022-09-02T10:09:06.009Z,0.77
2022-09-02T10:11:31.631Z,0.88
2022-09-02T10:14:01.647Z,1.45
2022-09-02T10:16:43.083Z,1.05
2022-09-02T10:19:19.690Z,1.00
2022-09-02T10:22:23.658Z,1.10
2022-09-02T10:25:20.516Z,1.00
2022-09-02T10:27:57.126Z,1.00
2022-09-02T10:30:23.051Z,1.30
2022-09-02T10:33:24.019Z,1.10
2022-09-02T10:35:50.539Z,1.15
2022-09-02T10:38:40.404Z,1.00
2022-09-02T10:41:17.973Z,1.10
2022-09-02T10:44:04.291Z,0.80
2022-09-02T10:46:35.907Z,0.90
2022-09-02T10:49:10.837Z,0.90
2022-09-02T10:51:45.151Z,0.60
2022-09-02T10:54:31.103Z,0.73
2022-09-02T10:57:03.398Z,1.05
2022-09-02T10:59:34.347Z,0.90
2022-09-02T11:02:04.292Z,0.90
2022-09-02T11:04:43.334Z,1.00
2022-09-02T11:07:10.907Z,0.80
2022-09-02T11:09:40.479Z,0.90
2022-09-02T11:12:12.230Z,1.00
2022-09-02T11:14:49.075Z,0.90
2022-09-02T11:17:21.519Z,0.93
2022-09-02T11:19:51.449Z,0.88
2022-09-02T11:22:27.687Z,0.90
2022-09-02T11:24:57.786Z,1.30
2022-09-02T11:27:42.208Z,1.10
2022-09-02T11:30:11.534Z,0.90
2022-09-02T11:32:42.600Z,0.90
2022-09-02T11:35:12.338Z,0.75
2022-09-02T11:37:41.559Z,1.13
2022-09-02T11:40:33.203Z,0.80
2022-09-02T11:43:26.951Z,0.70
2022-09-02T11:46:47.293Z,1.10
2022-09-02T11:49:48.068Z,0.90
2022-09-02T11:52:26.868Z,1.00
2022-09-02T11:55:02.642Z,0.98
2022-09-02T11:57:28.628Z,1.05
2022-09-02T12:00:29.242Z,0.73
2022-09-02T12:03:37.806Z,0.90
2022-09-02T12:06:12.289Z,0.95
2022-09-02T12:09:12.285Z,1.00
2022-09-02T12:11:45.452Z,0.98
2022-09-02T12:14:13.727Z,1.00
2022-09-02T12:16:43.076Z,1.08
2022-09-02T12:19:41.946Z,1.10
2022-09-02T12:22:38.812Z,1.10
2022-09-02T12:25:03.456Z,1.10
2022-09-02T12:27:36.755Z,1.10
2022-09-02T12:30:02.103Z,1.10
2022-09-02T12:33:05.775Z,1.20
2022-09-02T12:35:37.372Z,1.10
2022-09-02T12:38:31.691Z,1.08
2022-09-02T12:41:24.507Z,1.23
2022-09-02T12:44:25.599Z,1.10
2022-09-02T12:47:01.853Z,1.30
2022-09-02T12:49:49.672Z,1.13
2022-09-02T12:52:42.098Z,1.15
2022-09-02T12:55:11.987Z,1.20
2022-09-02T12:57:42.857Z,1.15
2022-09-02T13:00:07.859Z,1.27
2022-09-02T13:02:51.132Z,1.17
2022-09-02T13:05:28.301Z,1.00
2022-09-02T13:08:34.567Z,1.15
2022-09-02T13:11:37.636Z,1.00
2022-09-02T13:14:37.339Z,1.30
2022-09-02T13:17:36.047Z,1.20
2022-09-02T13:21:10.010Z,1.17
2022-09-02T13:24:19.324Z,1.20
2022-09-02T13:27:28.965Z,0.95
2022-09-02T13:30:15.953Z,1.52
2022-09-02T13:32:40.426Z,1.63
2022-09-02T13:35:08.207Z,1.60
2022-09-02T13:37:37.913Z,1.50
2022-09-02T13:40:07.534Z,1.40
2022-09-02T13:42:33.067Z,1.27
2022-09-02T13:45:15.527Z,1.27
2022-09-02T13:47:42.369Z,1.38
2022-09-02T13:50:08.828Z,1.35
2022-09-02T13:53:20.008Z,1.40
2022-09-02T13:55:20.658Z,1.20
2022-09-02T13:57:55.583Z,1.23
2022-09-02T14:00:31.241Z,1.20
2022-09-02T14:03:03.042Z,1.33
2022-09-02T14:05:27.975Z,1.13
2022-09-02T14:07:57.338Z,1.23
2022-09-02T14:10:24.340Z,1.40
2022-09-02T14:12:49.034Z,1.38
2022-09-02T14:15:17.093Z,1.33
2022-09-02T14:17:40.846Z,1.10
2022-09-02T14:20:19.159Z,1.25
2022-09-02T14:22:43.480Z,1.40
2022-09-02T14:25:15.453Z,1.30
2022-09-02T14:27:40.162Z,1.30
2022-09-02T14:30:09.291Z,1.38
2022-09-02T14:32:36.302Z,1.35
2022-09-02T14:35:22.684Z,1.20
2022-09-02T14:37:53.090Z,1.20
2022-09-02T14:40:19.766Z,1.23
2022-09-02T14:42:52.635Z,1.30
2022-09-02T14:45:28.986Z,1.10
2022-09-02T14:47:52.839Z,1.23
2022-09-02T14:50:27.866Z,1.25
2022-09-02T14:52:57.498Z,1.40
2022-09-02T14:55:52.741Z,1.50
2022-09-02T14:58:17.802Z,1.58
2022-09-02T15:00:41.687Z,1.15
2022-09-02T15:03:05.743Z,1.30
2022-09-02T15:05:29.431Z,1.20
2022-09-02T15:07:53.251Z,1.08
2022-09-02T15:10:17.015Z,1.25
2022-09-02T15:12:49.503Z,1.00
2022-09-02T15:15:13.217Z,1.00
2022-09-02T15:17:37.063Z,1.00
2022-09-02T15:20:00.766Z,1.15
2022-09-02T15:22:25.148Z,1.08
2022-09-02T15:24:50.630Z,1.20
2022-09-02T15:27:14.955Z,1.08
2022-09-02T15:29:42.387Z,0.98
2022-09-02T15:32:06.279Z,1.08
2022-09-02T15:34:29.937Z,0.73
2022-09-02T15:36:55.057Z,0.70
2022-09-02T15:39:19.487Z,1.13
2022-09-02T15:41:45.505Z,0.90
2022-09-02T15:44:09.382Z,0.85
2022-09-02T15:46:36.993Z,0.90
2022-09-02T15:49:04.229Z,0.98
2022-09-02T15:51:27.842Z,1.02
2022-09-02T15:53:57.054Z,0.95
2022-09-02T15:56:23.159Z,0.80
2022-09-02T15:58:47.281Z,0.90
2022-09-02T16:01:10.981Z,1.20
2022-09-02T16:03:37.083Z,0.98
2022-09-02T16:06:03.319Z,0.80
2022-09-02T16:08:26.950Z,0.80
2022-09-02T16:10:51.383Z,1.02
2022-09-02T16:13:15.096Z,1.10
2022-09-02T16:15:38.754Z,0.90
2022-09-02T16:18:02.429Z,1.00
2022-09-02T16:20:27.471Z,1.02
2022-09-02T16:22:51.136Z,1.00
2022-09-02T16:25:14.835Z,0.70
2022-09-02T16:27:53.239Z,1.20
2022-09-02T16:30:17.456Z,1.20
2022-09-02T16:32:41.159Z,1.00
2022-09-02T16:35:05.330Z,0.90
2022-09-02T16:37:30.605Z,3.50
2022-09-02T16:39:54.406Z,1.00
2022-09-02T16:42:18.111Z,1.00
2022-09-02T16:44:41.804Z,1.50
2022-09-02T16:47:05.831Z,1.13
2022-09-02T16:49:29.499Z,2.10
2022-09-02T16:51:58.218Z,1.10
2022-09-02T16:54:30.914Z,1.10
2022-09-02T16:56:56.095Z,1.05
2022-09-02T16:59:20.395Z,1.10
2022-09-02T17:01:44.129Z,1.10
2022-09-02T17:04:08.995Z,1.20
2022-09-02T17:06:33.730Z,0.90
2022-09-02T17:08:58.112Z,1.10
2022-09-02T17:11:26.594Z,0.90
2022-09-02T17:13:52.803Z,1.10
2022-09-02T17:16:17.102Z,1.00
2022-09-02T17:18:40.792Z,1.00
2022-09-02T17:21:25.923Z,1.20
2022-09-02T17:23:50.037Z,1.35
2022-09-02T17:26:14.727Z,1.10
2022-09-02T17:28:47.369Z,1.42
2022-09-02T17:31:21.119Z,1.20
2022-09-02T17:33:44.851Z,1.02
2022-09-02T17:36:09.135Z,1.10
2022-09-02T17:38:32.799Z,1.10
2022-09-02T17:41:13.791Z,1.00
2022-09-02T17:43:38.437Z,1.25
2022-09-02T17:46:08.538Z,0.82
2022-09-02T17:48:41.743Z,1.00
2022-09-02T17:51:09.190Z,0.95
2022-09-02T17:53:33.623Z,1.55
2022-09-02T17:56:06.807Z,1.20
2022-09-02T17:58:34.860Z,1.10
2022-09-02T18:01:01.404Z,1.10
2022-09-02T18:03:41.051Z,1.08
2022-09-02T18:06:12.975Z,1.33
2022-09-02T18:08:46.946Z,1.05
2022-09-02T18:11:10.696Z,1.15
2022-09-02T18:13:44.407Z,1.10
2022-09-02T18:16:32.254Z,1.00
2022-09-02T18:19:14.114Z,1.13
2022-09-02T18:21:59.078Z,1.40
2022-09-02T18:24:40.966Z,1.40
2022-09-02T18:27:12.733Z,1.20
2022-09-02T18:29:59.095Z,1.50
2022-09-02T18:32:44.418Z,1.48
2022-09-02T18:35:22.744Z,1.88
2022-09-02T18:38:02.447Z,1.48
2022-09-02T18:40:37.872Z,1.58
2022-09-02T18:43:15.713Z,1.60
2022-09-02T18:45:49.351Z,1.65
2022-09-02T18:48:17.029Z,1.73
2022-09-02T18:50:51.571Z,1.60
2022-09-02T18:53:21.597Z,2.00
2022-09-02T18:55:47.084Z,1.80
2022-09-02T18:58:19.963Z,1.83
2022-09-02T19:00:49.545Z,1.70
2022-09-02T19:03:13.239Z,2.00
2022-09-02T19:05:37.493Z,1.60
2022-09-02T19:08:23.031Z,2.03
2022-09-02T19:10:47.220Z,2.03
2022-09-02T19:13:10.960Z,2.13
2022-09-02T19:15:34.648Z,1.80
2022-09-02T19:18:00.443Z,2.13
2022-09-02T19:20:24.178Z,2.00
2022-09-02T19:22:53.953Z,2.10
2022-09-02T19:25:24.411Z,2.00
2022-09-02T19:27:52.094Z,1.90
2022-09-02T19:30:19.243Z,1.85
2022-09-02T19:32:47.910Z,1.85
2022-09-02T19:35:16.680Z,1.95
2022-09-02T19:37:44.777Z,1.98
2022-09-02T19:40:11.562Z,1.88
2022-09-02T19:42:36.653Z,1.77
2022-09-02T19:45:00.740Z,1.75
2022-09-02T19:50:08.978Z,2.10
2022-09-02T19:52:34.013Z,1.83
2022-09-02T19:54:58.633Z,2.20
2022-09-02T19:57:22.839Z,2.30
2022-09-02T19:59:47.899Z,2.47
2022-09-02T20:02:11.558Z,2.55
2022-09-02T20:04:35.351Z,2.70
2022-09-02T20:06:59.862Z,2.50
2022-09-02T20:09:24.016Z,3.15
2022-09-02T20:11:47.846Z,3.00
2022-09-02T20:14:11.502Z,3.20
2022-09-02T20:16:36.595Z,3.00
2022-09-02T20:19:00.375Z,2.80
2022-09-02T20:21:27.390Z,3.05
2022-09-02T20:23:51.132Z,3.55
2022-09-02T20:26:26.783Z,2.80
2022-09-02T20:29:08.765Z,3.20
2022-09-02T20:31:52.620Z,2.80
2022-09-02T20:34:34.263Z,3.63
2022-09-02T20:37:09.450Z,3.03
2022-09-02T20:39:51.094Z,2.35
2022-09-02T20:42:40.096Z,2.97
2022-09-02T20:45:09.903Z,3.10
2022-09-02T20:47:50.667Z,2.65
2022-09-02T20:50:30.759Z,2.85
2022-09-02T20:53:13.051Z,3.05
2022-09-02T20:55:45.643Z,2.50
2022-09-02T20:58:22.430Z,2.63
2022-09-02T21:01:04.612Z,2.65
2022-09-02T21:03:41.130Z,2.20
2022-09-02T21:06:05.919Z,2.42
2022-09-02T21:08:35.483Z,2.60
2022-09-02T21:11:02.376Z,2.40
2022-09-02T21:13:40.066Z,2.40
2022-09-02T21:16:11.285Z,2.33
2022-09-02T21:18:44.289Z,2.30
2022-09-02T21:21:24.395Z,2.13
2022-09-02T21:23:53.563Z,2.22
2022-09-02T21:26:26.097Z,2.10
2022-09-02T21:29:01.398Z,2.10
2022-09-02T21:31:37.960Z,2.28
2022-09-02T21:34:09.492Z,2.30
2022-09-02T21:36:34.719Z,2.10
2022-09-02T21:39:05.251Z,2.35
2022-09-02T21:41:33.331Z,2.50
2022-09-02T21:44:09.675Z,2.33
2022-09-02T21:46:50.239Z,2.60
2022-09-02T21:49:35.247Z,2.22
2022-09-02T21:52:10.471Z,2.30
2022-09-02T21:54:50.788Z,2.35
2022-09-02T21:57:42.489Z,2.40
2022-09-02T22:00:10.206Z,2.55
2022-09-02T22:02:57.919Z,2.33
2022-09-02T22:05:49.518Z,2.70
2022-09-02T22:08:23.791Z,2.30
2022-09-02T22:11:01.974Z,2.92
2022-09-02T22:13:25.672Z,2.70
2022-09-02T22:16:01.323Z,2.80
2022-09-02T22:18:35.817Z,2.72
2022-09-02T22:21:06.131Z,2.92
2022-09-02T22:23:31.972Z,2.83
2022-09-02T22:25:57.516Z,2.75
2022-09-02T22:28:31.542Z,2.60
2022-09-02T22:31:00.268Z,2.95
2022-09-02T22:33:30.893Z,2.83
2022-09-02T22:36:01.109Z,2.67
2022-09-02T22:38:33.330Z,2.78
2022-09-02T22:41:02.250Z,2.78
2022-09-02T22:43:41.573Z,2.90
2022-09-02T22:46:29.001Z,2.80
2022-09-02T22:49:15.462Z,3.10
2022-09-02T22:52:07.877Z,2.92
2022-09-02T22:54:32.089Z,3.20
2022-09-02T22:57:07.099Z,2.78
2022-09-02T22:59:49.124Z,2.85
2022-09-02T23:02:22.227Z,2.85
2022-09-02T23:05:04.946Z,2.90
2022-09-02T23:07:31.325Z,3.17
2022-09-02T23:09:59.211Z,2.85
2022-09-02T23:12:31.686Z,2.92
2022-09-02T23:15:18.025Z,3.20
2022-09-02T23:17:57.962Z,3.47
2022-09-02T23:20:28.536Z,3.10
2022-09-02T23:23:14.172Z,3.00
2022-09-02T23:26:09.925Z,3.03
2022-09-02T23:28:54.350Z,3.00
2022-09-02T23:31:26.030Z,2.80
2022-09-02T23:34:04.080Z,2.97
2022-09-02T23:36:41.391Z,2.92
2022-09-02T23:39:18.805Z,2.40
2022-09-02T23:41:42.923Z,2.75
2022-09-02T23:44:08.763Z,2.33
2022-09-02T23:46:48.576Z,2.50
2022-09-02T23:49:22.845Z,2.85
2022-09-02T23:51:57.294Z,2.20
2022-09-02T23:54:50.607Z,2.40
2022-09-02T23:57:34.621Z,2.40
